createdAt,value
2019-05-25T00:01:25.363Z,4.53
2019-05-25T00:03:54.403Z,5.03
2019-05-25T00:06:23.450Z,4.23
2019-05-25T00:08:52.430Z,5.00
2019-05-25T00:11:21.337Z,4.43
2019-05-25T00:13:50.171Z,4.90
2019-05-25T00:16:19.111Z,5.47
2019-05-25T00:18:48.076Z,5.80
2019-05-25T00:21:17.046Z,6.07
2019-05-25T00:23:46.188Z,6.30
2019-05-25T00:26:15.207Z,6.70
2019-05-25T00:28:46.871Z,6.03
2019-05-25T00:31:15.983Z,6.43
2019-05-25T00:33:44.936Z,7.60
2019-05-25T00:36:13.768Z,7.53
2019-05-25T00:38:42.860Z,6.50
2019-05-25T00:41:11.745Z,6.47
2019-05-25T00:43:40.778Z,7.50
2019-05-25T00:46:09.764Z,7.63
2019-05-25T00:48:38.642Z,8.83
2019-05-25T00:51:07.812Z,9.13
2019-05-25T00:53:36.602Z,8.10
2019-05-25T00:56:05.547Z,6.73
2019-05-25T00:58:34.543Z,7.07
2019-05-25T01:01:03.659Z,7.17
2019-05-25T01:03:32.563Z,7.10
2019-05-25T01:06:01.598Z,6.60
2019-05-25T01:08:30.473Z,6.60
2019-05-25T01:10:59.881Z,7.13
2019-05-25T01:13:28.830Z,7.27
2019-05-25T01:15:57.642Z,8.00
2019-05-25T01:18:26.534Z,6.83
2019-05-25T01:20:55.518Z,7.77
2019-05-25T01:23:24.489Z,7.20
2019-05-25T01:25:53.449Z,6.80
2019-05-25T01:28:22.447Z,7.00
2019-05-25T01:30:51.387Z,7.30
2019-05-25T01:33:20.367Z,6.57
2019-05-25T01:35:49.343Z,7.17
2019-05-25T01:38:18.226Z,7.67
2019-05-25T01:40:47.213Z,6.83
2019-05-25T01:43:15.990Z,6.60
2019-05-25T01:45:44.874Z,7.03
2019-05-25T01:48:13.879Z,7.07
2019-05-25T01:50:42.867Z,6.53
2019-05-25T01:53:11.905Z,6.83
2019-05-25T01:55:40.893Z,7.57
2019-05-25T01:58:09.799Z,7.77
2019-05-25T02:00:38.737Z,7.23
2019-05-25T02:03:07.682Z,7.57
2019-05-25T02:05:36.603Z,7.07
2019-05-25T02:08:05.542Z,7.10
2019-05-25T02:10:34.419Z,8.00
2019-05-25T02:13:03.323Z,7.73
2019-05-25T02:15:32.329Z,6.93
2019-05-25T02:18:01.276Z,7.80
2019-05-25T02:20:30.282Z,7.13
2019-05-25T02:22:59.091Z,6.57
2019-05-25T02:25:30.548Z,7.60
2019-05-25T02:27:59.432Z,7.33
2019-05-25T02:30:28.514Z,6.57
2019-05-25T02:32:57.809Z,7.00
2019-05-25T02:35:29.157Z,6.33
2019-05-25T02:37:58.524Z,6.60
2019-05-25T02:40:27.682Z,5.80
2019-05-25T02:42:56.698Z,6.80
2019-05-25T02:45:26.089Z,6.50
2019-05-25T02:47:55.042Z,6.93
2019-05-25T02:50:24.446Z,7.03
2019-05-25T02:52:53.465Z,7.13
2019-05-25T02:55:33.665Z,7.73
2019-05-25T02:57:53.063Z,6.87
2019-05-25T03:00:31.222Z,6.77
2019-05-25T03:03:00.444Z,6.93
2019-05-25T03:05:29.416Z,6.77
2019-05-25T03:07:58.851Z,7.67
2019-05-25T03:10:28.065Z,7.27
2019-05-25T03:12:57.012Z,7.27
2019-05-25T03:15:25.897Z,6.93
2019-05-25T03:17:54.824Z,7.40
2019-05-25T03:20:23.783Z,7.60
2019-05-25T03:22:52.683Z,6.57
2019-05-25T03:25:21.718Z,6.67
2019-05-25T03:27:50.707Z,6.80
2019-05-25T03:30:30.758Z,6.43
2019-05-25T03:32:59.701Z,7.70
2019-05-25T03:35:28.709Z,8.03
2019-05-25T03:37:57.695Z,6.00
2019-05-25T03:40:26.705Z,6.43
2019-05-25T03:42:55.699Z,6.53
2019-05-25T03:45:24.669Z,6.20
2019-05-25T03:47:53.770Z,5.53
2019-05-25T03:50:22.724Z,5.60
2019-05-25T03:52:51.762Z,5.70
2019-05-25T03:55:20.670Z,6.13
2019-05-25T03:57:49.638Z,5.83
2019-05-25T04:00:32.208Z,5.90
2019-05-25T04:03:01.115Z,4.97
2019-05-25T04:05:30.140Z,4.80
2019-05-25T04:07:59.093Z,5.00
2019-05-25T04:10:28.078Z,5.13
2019-05-25T04:12:57.121Z,4.73
2019-05-25T04:15:26.240Z,4.73
2019-05-25T04:17:55.605Z,4.80
2019-05-25T04:20:24.463Z,4.60
2019-05-25T04:22:53.489Z,4.70
2019-05-25T04:25:22.442Z,3.97
2019-05-25T04:27:51.328Z,4.17
2019-05-25T04:30:20.681Z,4.70
2019-05-25T04:32:49.526Z,4.00
2019-05-25T04:35:18.698Z,4.13
2019-05-25T04:37:47.571Z,3.97
2019-05-25T04:40:16.612Z,4.37
2019-05-25T04:42:45.635Z,4.87
2019-05-25T04:45:14.700Z,5.00
2019-05-25T04:47:43.631Z,4.40
2019-05-25T04:50:12.758Z,4.07
2019-05-25T04:52:41.888Z,4.10
2019-05-25T04:55:11.140Z,5.23
2019-05-25T04:57:40.250Z,3.60
2019-05-25T05:00:09.698Z,3.60
2019-05-25T05:02:38.608Z,3.77
2019-05-25T05:05:07.866Z,3.90
2019-05-25T05:07:36.875Z,3.53
2019-05-25T05:10:06.694Z,4.30
2019-05-25T05:12:35.575Z,4.30
2019-05-25T05:15:05.818Z,4.53
2019-05-25T05:17:34.904Z,4.00
2019-05-25T05:20:04.440Z,3.47
2019-05-25T05:22:33.325Z,3.43
2019-05-25T05:25:02.375Z,4.03
2019-05-25T05:27:31.251Z,3.47
2019-05-25T05:30:00.161Z,3.30
2019-05-25T05:32:29.270Z,4.97
2019-05-25T05:34:58.985Z,4.00
2019-05-25T05:37:29.354Z,3.20
2019-05-25T05:39:59.325Z,3.33
2019-05-25T05:42:28.773Z,3.50
2019-05-25T05:44:59.763Z,3.47
2019-05-25T05:47:31.284Z,3.33
2019-05-25T05:50:03.506Z,3.20
2019-05-25T05:52:37.089Z,3.22
2019-05-25T05:55:06.217Z,3.80
2019-05-25T05:57:35.122Z,2.90
2019-05-25T06:00:05.431Z,3.03
2019-05-25T06:02:34.391Z,3.15
2019-05-25T06:05:03.967Z,3.03
2019-05-25T06:07:37.722Z,3.00
2019-05-25T06:10:09.060Z,3.03
2019-05-25T06:12:38.033Z,3.20
2019-05-25T06:15:07.857Z,3.00
2019-05-25T06:17:36.854Z,2.80
2019-05-25T06:20:07.140Z,3.10
2019-05-25T06:22:36.181Z,3.70
2019-05-25T06:25:05.879Z,3.10
2019-05-25T06:27:34.874Z,3.43
2019-05-25T06:30:04.566Z,2.77
2019-05-25T06:32:34.284Z,2.87
2019-05-25T06:35:03.306Z,2.53
2019-05-25T06:37:32.321Z,2.57
2019-05-25T06:40:01.400Z,2.93
2019-05-25T06:42:30.328Z,2.50
2019-05-25T06:44:59.200Z,3.20
2019-05-25T06:47:28.122Z,2.77
2019-05-25T06:49:57.143Z,2.63
2019-05-25T06:52:26.055Z,3.20
2019-05-25T06:54:54.872Z,2.77
2019-05-25T06:57:23.745Z,2.93
2019-05-25T06:59:52.812Z,3.03
2019-05-25T07:02:22.706Z,3.50
2019-05-25T07:04:51.583Z,2.70
2019-05-25T07:07:20.619Z,3.90
2019-05-25T07:09:49.520Z,3.27
2019-05-25T07:12:18.459Z,3.17
2019-05-25T07:14:47.398Z,4.47
2019-05-25T07:17:16.370Z,5.00
2019-05-25T07:19:45.273Z,4.17
2019-05-25T07:22:14.233Z,4.27
2019-05-25T07:24:43.206Z,3.80
2019-05-25T07:27:12.763Z,4.03
2019-05-25T07:29:41.684Z,3.63
2019-05-25T07:32:10.746Z,3.83
2019-05-25T07:34:39.738Z,4.07
2019-05-25T07:37:08.703Z,3.87
2019-05-25T07:39:37.535Z,4.60
2019-05-25T07:42:08.325Z,4.30
2019-05-25T07:44:37.250Z,4.50
2019-05-25T07:47:06.046Z,4.00
2019-05-25T07:49:34.830Z,4.17
2019-05-25T07:52:04.023Z,3.50
2019-05-25T07:54:32.823Z,3.70
2019-05-25T07:57:01.857Z,3.67
2019-05-25T07:59:30.671Z,4.13
2019-05-25T08:01:59.639Z,3.17
2019-05-25T08:04:28.473Z,4.47
2019-05-25T08:06:57.488Z,4.90
2019-05-25T08:09:26.446Z,4.40
2019-05-25T08:11:55.465Z,4.87
2019-05-25T08:14:24.378Z,4.70
2019-05-25T08:16:53.383Z,3.40
2019-05-25T08:19:22.366Z,3.60
2019-05-25T08:21:51.325Z,3.60
2019-05-25T08:24:20.340Z,3.07
2019-05-25T08:26:49.342Z,4.40
2019-05-25T08:29:18.321Z,3.80
2019-05-25T08:31:47.306Z,3.63
2019-05-25T08:34:16.242Z,3.13
2019-05-25T08:36:45.243Z,3.10
2019-05-25T08:39:14.108Z,2.47
2019-05-25T08:41:45.526Z,3.50
2019-05-25T08:44:14.093Z,3.33
2019-05-25T08:46:43.013Z,2.73
2019-05-25T08:49:11.904Z,2.90
2019-05-25T08:51:40.730Z,2.70
2019-05-25T08:54:09.593Z,2.20
2019-05-25T08:56:38.493Z,2.30
2019-05-25T08:59:07.474Z,2.80
2019-05-25T09:01:36.400Z,1.93
2019-05-25T09:04:05.473Z,1.83
2019-05-25T09:06:34.442Z,1.90
2019-05-25T09:09:03.853Z,1.70
2019-05-25T09:11:32.797Z,1.60
2019-05-25T09:14:01.586Z,2.17
2019-05-25T09:16:30.682Z,1.80
2019-05-25T09:18:59.558Z,1.57
2019-05-25T09:21:28.987Z,1.93
2019-05-25T09:23:57.902Z,1.83
2019-05-25T09:26:26.794Z,1.57
2019-05-25T09:29:03.928Z,1.50
2019-05-25T09:31:26.222Z,1.67
2019-05-25T09:33:55.123Z,1.30
2019-05-25T09:36:24.062Z,1.83
2019-05-25T09:38:52.951Z,2.03
2019-05-25T09:41:21.983Z,2.47
2019-05-25T09:43:50.888Z,3.40
2019-05-25T09:46:19.838Z,3.07
2019-05-25T09:48:48.730Z,3.77
2019-05-25T09:51:17.743Z,2.40
2019-05-25T09:53:46.634Z,2.13
2019-05-25T09:56:15.559Z,2.33
2019-05-25T09:58:44.579Z,1.90
2019-05-25T10:01:13.565Z,1.47
2019-05-25T10:03:42.570Z,1.83
2019-05-25T10:06:13.329Z,1.20
2019-05-25T10:08:42.077Z,1.50
2019-05-25T10:11:11.568Z,1.02
2019-05-25T10:13:40.597Z,0.90
2019-05-25T10:16:09.441Z,0.80
2019-05-25T10:18:38.351Z,0.90
2019-05-25T10:21:07.272Z,0.83
2019-05-25T10:23:36.371Z,0.77
2019-05-25T10:26:05.294Z,0.70
2019-05-25T10:28:34.303Z,0.60
2019-05-25T10:31:03.147Z,0.50
2019-05-25T10:33:32.641Z,0.50
2019-05-25T10:36:01.774Z,0.50
2019-05-25T10:38:30.699Z,0.63
2019-05-25T10:40:59.472Z,0.43
2019-05-25T10:43:28.422Z,0.60
2019-05-25T10:45:57.284Z,0.60
2019-05-25T10:48:26.324Z,0.60
2019-05-25T10:50:55.214Z,0.60
2019-05-25T10:53:24.038Z,0.90
2019-05-25T10:55:52.932Z,0.97
2019-05-25T10:58:21.919Z,0.70
2019-05-25T11:00:51.217Z,0.70
2019-05-25T11:03:20.478Z,0.60
2019-05-25T11:05:49.535Z,0.70
2019-05-25T11:08:18.599Z,0.70
2019-05-25T11:10:47.567Z,0.60
2019-05-25T11:13:16.600Z,0.50
2019-05-25T11:15:45.545Z,0.50
2019-05-25T11:18:14.592Z,0.50
2019-05-25T11:20:43.578Z,0.60
2019-05-25T11:23:12.498Z,0.70
2019-05-25T17:23:14.287Z,2.43
2019-05-25T17:25:43.350Z,1.97
2019-05-25T17:28:12.352Z,2.40
2019-05-25T17:30:47.128Z,2.08
2019-05-25T17:33:16.471Z,2.10
2019-05-25T17:35:45.755Z,2.00
2019-05-25T17:38:14.745Z,2.27
2019-05-25T17:40:43.752Z,2.10
2019-05-25T17:43:12.640Z,2.87
2019-05-25T17:45:41.539Z,2.10
2019-05-25T17:48:10.515Z,2.10
2019-05-25T17:50:39.475Z,2.00
2019-05-25T17:53:08.450Z,2.33
2019-05-25T17:55:37.450Z,2.60
2019-05-25T17:58:06.611Z,2.50
2019-05-25T18:00:45.446Z,2.20
2019-05-25T18:03:14.673Z,2.20
2019-05-25T18:05:43.699Z,2.60
2019-05-25T18:08:12.704Z,2.77
2019-05-25T18:10:53.007Z,2.90
2019-05-25T18:13:12.456Z,2.87
2019-05-25T18:15:41.331Z,2.80
2019-05-25T18:18:10.332Z,3.10
2019-05-25T18:20:39.333Z,2.73
2019-05-25T18:23:08.424Z,3.27
2019-05-25T18:25:37.331Z,3.10
2019-05-25T18:28:07.381Z,2.93
2019-05-25T18:30:36.626Z,3.30
2019-05-25T18:33:06.204Z,3.93
2019-05-25T18:35:35.453Z,4.43
2019-05-25T18:38:04.391Z,4.10
2019-05-25T18:40:33.430Z,4.07
2019-05-25T18:43:02.518Z,4.00
2019-05-25T18:45:31.612Z,4.53
2019-05-25T18:48:00.725Z,4.10
2019-05-25T18:50:29.675Z,3.80
2019-05-25T18:52:58.564Z,4.10
2019-05-25T18:55:27.488Z,3.90
2019-05-25T18:57:56.348Z,3.47
2019-05-25T19:00:25.594Z,3.97
2019-05-25T19:02:54.469Z,3.80
2019-05-25T19:05:23.673Z,4.00
2019-05-25T19:07:52.725Z,4.12
2019-05-25T19:10:22.278Z,4.30
2019-05-25T19:12:51.203Z,4.23
2019-05-25T19:15:20.528Z,5.13
2019-05-25T19:17:49.548Z,5.23
2019-05-25T19:20:21.238Z,5.10
2019-05-25T19:22:49.889Z,5.50
2019-05-25T19:25:18.921Z,5.80
2019-05-25T19:27:48.344Z,5.47
2019-05-25T19:30:17.338Z,6.30
2019-05-25T19:32:46.194Z,6.90
2019-05-25T19:35:15.282Z,5.73
2019-05-25T19:37:44.166Z,5.20
2019-05-25T19:40:14.790Z,5.90
2019-05-25T19:42:43.723Z,4.43
2019-05-25T19:45:13.830Z,4.90
2019-05-25T19:47:42.727Z,5.05
2019-05-25T19:50:11.925Z,3.90
2019-05-25T19:52:40.887Z,3.30
2019-05-25T19:55:10.325Z,4.10
2019-05-25T19:57:39.319Z,4.40
2019-05-25T20:00:09.244Z,4.90
2019-05-25T20:02:38.351Z,4.17
2019-05-25T20:05:16.217Z,4.20
2019-05-25T20:07:38.610Z,4.83
2019-05-25T20:10:10.499Z,4.73
2019-05-25T20:12:39.462Z,3.70
2019-05-25T20:15:10.436Z,3.67
2019-05-25T20:17:39.431Z,4.50
2019-05-25T20:20:10.406Z,4.00
2019-05-25T20:22:39.420Z,4.30
2019-05-25T20:25:08.379Z,3.97
2019-05-25T20:27:37.418Z,4.07
2019-05-25T20:30:06.844Z,3.83
2019-05-25T20:32:35.828Z,3.97
2019-05-25T20:35:05.182Z,3.70
2019-05-25T20:37:34.228Z,3.60
2019-05-25T20:40:03.436Z,3.93
2019-05-25T20:42:32.346Z,4.37
2019-05-25T20:45:01.285Z,3.70
2019-05-25T20:47:30.289Z,3.70
2019-05-25T20:49:59.524Z,3.57
2019-05-25T20:52:28.697Z,3.67
2019-05-25T20:54:57.643Z,3.40
2019-05-25T20:57:26.644Z,3.40
2019-05-25T20:59:55.749Z,3.70
2019-05-25T21:02:24.713Z,3.47
2019-05-25T21:04:53.660Z,3.73
2019-05-25T21:07:23.062Z,3.70
2019-05-25T21:09:52.213Z,3.30
2019-05-25T21:12:21.378Z,3.67
2019-05-25T21:14:50.369Z,3.40
2019-05-25T21:17:19.433Z,3.63
2019-05-25T21:19:48.674Z,3.13
2019-05-25T21:22:17.767Z,3.37
2019-05-25T21:24:46.733Z,3.27
2019-05-25T21:27:15.679Z,3.50
2019-05-25T21:29:44.609Z,3.30
2019-05-25T21:32:13.772Z,3.40
2019-05-25T21:34:42.576Z,4.07
2019-05-25T21:37:15.780Z,3.87
2019-05-25T21:39:44.593Z,3.67
2019-05-25T21:42:13.414Z,3.57
2019-05-25T21:44:42.351Z,3.03
2019-05-25T21:47:11.244Z,3.10
2019-05-25T21:49:40.176Z,3.80
2019-05-25T21:52:09.112Z,3.40
2019-05-25T21:54:38.110Z,4.10
2019-05-25T21:57:06.915Z,3.97
2019-05-25T21:59:35.881Z,4.10
2019-05-25T22:02:05.176Z,4.57
2019-05-25T22:04:34.075Z,3.67
2019-05-25T22:07:02.975Z,3.47
2019-05-25T22:09:31.771Z,3.33
2019-05-25T22:12:00.752Z,3.70
2019-05-25T22:14:29.677Z,3.60
2019-05-25T22:16:58.705Z,3.67
2019-05-25T22:19:27.674Z,3.60
2019-05-25T22:21:56.817Z,4.17
2019-05-25T22:24:25.938Z,3.97
2019-05-25T22:26:54.836Z,3.53
2019-05-25T22:29:23.952Z,2.80
2019-05-25T22:31:53.027Z,2.77
2019-05-25T22:34:22.047Z,3.30
2019-05-25T22:36:51.012Z,3.10
2019-05-25T22:39:19.983Z,3.03
2019-05-25T22:41:49.069Z,2.90
2019-05-25T22:44:18.036Z,3.07
2019-05-25T22:46:47.232Z,3.47
2019-05-25T22:49:16.569Z,2.67
2019-05-25T22:51:45.575Z,3.33
2019-05-25T22:54:14.603Z,2.90
2019-05-25T22:56:43.421Z,2.17
2019-05-25T22:59:12.878Z,2.40
2019-05-25T23:01:41.934Z,2.33
2019-05-25T23:04:10.885Z,2.70
2019-05-25T23:06:56.102Z,2.90
2019-05-25T23:09:10.826Z,3.80
2019-05-25T23:11:39.944Z,3.40
2019-05-25T23:14:09.966Z,3.27
2019-05-25T23:16:39.114Z,3.23
2019-05-25T23:19:08.322Z,2.30
2019-05-25T23:21:37.627Z,2.47
2019-05-25T23:24:06.926Z,2.10
2019-05-25T23:26:36.222Z,2.10
2019-05-25T23:29:06.310Z,2.10
2019-05-25T23:31:35.335Z,2.43
2019-05-25T23:34:04.398Z,2.10
2019-05-25T23:36:33.911Z,2.23
2019-05-25T23:39:02.911Z,2.10
2019-05-25T23:41:31.798Z,2.20
2019-05-25T23:44:00.708Z,2.37
2019-05-25T23:46:29.643Z,2.10
2019-05-25T23:48:58.668Z,2.90
2019-05-25T23:51:27.621Z,2.90
2019-05-25T23:53:56.617Z,3.57
2019-05-25T23:56:25.492Z,4.27
2019-05-25T23:58:55.942Z,4.87
